sensor_id;sensor_type;location;lat;lon;timestamp;P1;durP1;ratioP1;P2;durP2;ratioP2
21899;SDS011;11114;50.658;12.704;2022-11-20T00:01:31;23.90;;;21.40;;
21899;SDS011;11114;50.658;12.704;2022-11-20T00:03:59;23.45;;;21.05;;
21899;SDS011;11114;50.658;12.704;2022-11-20T00:06:27;23.27;;;20.98;;
21899;SDS011;11114;50.658;12.704;2022-11-20T00:08:56;22.17;;;19.92;;
21899;SDS011;11114;50.658;12.704;2022-11-20T00:11:26;20.03;;;18.20;;
21899;SDS011;11114;50.658;12.704;2022-11-20T00:13:56;22.85;;;20.55;;
21899;SDS011;11114;50.658;12.704;2022-11-20T00:16:27;22.75;;;20.45;;
21899;SDS011;11114;50.658;12.704;2022-11-20T00:18:57;21.83;;;19.73;;
21899;SDS011;11114;50.658;12.704;2022-11-20T00:21:25;20.98;;;18.98;;
21899;SDS011;11114;50.658;12.704;2022-11-20T00:23:54;20.13;;;18.17;;
21899;SDS011;11114;50.658;12.704;2022-11-20T00:26:24;22.27;;;20.15;;
21899;SDS011;11114;50.658;12.704;2022-11-20T00:28:54;21.65;;;19.55;;
21899;SDS011;11114;50.658;12.704;2022-11-20T00:31:26;21.88;;;19.77;;
21899;SDS011;11114;50.658;12.704;2022-11-20T00:33:54;21.42;;;19.38;;
21899;SDS011;11114;50.658;12.704;2022-11-20T00:36:23;21.15;;;19.15;;
21899;SDS011;11114;50.658;12.704;2022-11-20T00:38:53;17.95;;;16.35;;
21899;SDS011;11114;50.658;12.704;2022-11-20T00:41:22;20.52;;;18.52;;
21899;SDS011;11114;50.658;12.704;2022-11-20T00:43:53;21.75;;;19.63;;
21899;SDS011;11114;50.658;12.704;2022-11-20T00:46:23;21.55;;;19.52;;
21899;SDS011;11114;50.658;12.704;2022-11-20T00:48:53;21.35;;;19.35;;
21899;SDS011;11114;50.658;12.704;2022-11-20T00:51:22;22.63;;;20.33;;
21899;SDS011;11114;50.658;12.704;2022-11-20T00:53:51;23.10;;;20.77;;
21899;SDS011;11114;50.658;12.704;2022-11-20T00:56:19;22.02;;;19.83;;
21899;SDS011;11114;50.658;12.704;2022-11-20T00:58:47;22.80;;;20.52;;
21899;SDS011;11114;50.658;12.704;2022-11-20T01:01:17;23.63;;;21.17;;
21899;SDS011;11114;50.658;12.704;2022-11-20T01:03:47;22.35;;;20.15;;
21899;SDS011;11114;50.658;12.704;2022-11-20T01:06:17;21.98;;;19.67;;
21899;SDS011;11114;50.658;12.704;2022-11-20T01:08:45;22.00;;;19.88;;
21899;SDS011;11114;50.658;12.704;2022-11-20T01:11:15;21.70;;;19.58;;
21899;SDS011;11114;50.658;12.704;2022-11-20T01:13:47;22.17;;;19.90;;
21899;SDS011;11114;50.658;12.704;2022-11-20T01:16:17;22.55;;;20.25;;
21899;SDS011;11114;50.658;12.704;2022-11-20T01:18:48;21.85;;;19.52;;
21899;SDS011;11114;50.658;12.704;2022-11-20T01:21:19;23.15;;;20.75;;
21899;SDS011;11114;50.658;12.704;2022-11-20T01:23:49;21.73;;;19.60;;
21899;SDS011;11114;50.658;12.704;2022-11-20T01:26:19;22.33;;;19.98;;
21899;SDS011;11114;50.658;12.704;2022-11-20T01:28:48;19.95;;;17.98;;
21899;SDS011;11114;50.658;12.704;2022-11-20T01:31:21;22.98;;;20.70;;
21899;SDS011;11114;50.658;12.704;2022-11-20T01:33:51;20.98;;;18.88;;
21899;SDS011;11114;50.658;12.704;2022-11-20T01:36:21;18.40;;;16.73;;
21899;SDS011;11114;50.658;12.704;2022-11-20T01:38:52;20.00;;;18.00;;
21899;SDS011;11114;50.658;12.704;2022-11-20T01:41:21;19.52;;;17.73;;
21899;SDS011;11114;50.658;12.704;2022-11-20T01:44:08;19.55;;;17.75;;
21899;SDS011;11114;50.658;12.704;2022-11-20T01:46:38;18.70;;;17.00;;
21899;SDS011;11114;50.658;12.704;2022-11-20T01:49:21;17.77;;;16.20;;
21899;SDS011;11114;50.658;12.704;2022-11-20T01:51:58;16.90;;;15.50;;
21899;SDS011;11114;50.658;12.704;2022-11-20T01:54:36;16.60;;;15.18;;
21899;SDS011;11114;50.658;12.704;2022-11-20T01:57:12;16.20;;;14.80;;
21899;SDS011;11114;50.658;12.704;2022-11-20T01:59:43;15.35;;;14.07;;
21899;SDS011;11114;50.658;12.704;2022-11-20T02:02:17;15.98;;;14.60;;
21899;SDS011;11114;50.658;12.704;2022-11-20T02:04:46;15.90;;;14.60;;
21899;SDS011;11114;50.658;12.704;2022-11-20T02:07:14;15.68;;;14.48;;
21899;SDS011;11114;50.658;12.704;2022-11-20T02:09:43;15.40;;;14.10;;
21899;SDS011;11114;50.658;12.704;2022-11-20T02:12:11;15.88;;;14.57;;
21899;SDS011;11114;50.658;12.704;2022-11-20T02:14:59;16.13;;;14.73;;
21899;SDS011;11114;50.658;12.704;2022-11-20T02:17:26;15.70;;;14.40;;
21899;SDS011;11114;50.658;12.704;2022-11-20T02:19:55;15.35;;;14.15;;
21899;SDS011;11114;50.658;12.704;2022-11-20T02:22:31;15.30;;;14.07;;
21899;SDS011;11114;50.658;12.704;2022-11-20T02:25:06;15.40;;;14.18;;
21899;SDS011;11114;50.658;12.704;2022-11-20T02:27:35;15.50;;;14.20;;
21899;SDS011;11114;50.658;12.704;2022-11-20T02:30:04;14.80;;;13.70;;
21899;SDS011;11114;50.658;12.704;2022-11-20T02:32:35;15.23;;;14.02;;
21899;SDS011;11114;50.658;12.704;2022-11-20T02:35:10;15.02;;;13.73;;
21899;SDS011;11114;50.658;12.704;2022-11-20T02:37:58;14.40;;;13.30;;
21899;SDS011;11114;50.658;12.704;2022-11-20T02:40:28;15.25;;;14.10;;
21899;SDS011;11114;50.658;12.704;2022-11-20T02:42:56;14.80;;;13.70;;
21899;SDS011;11114;50.658;12.704;2022-11-20T02:45:24;14.68;;;13.57;;
21899;SDS011;11114;50.658;12.704;2022-11-20T02:47:52;14.48;;;13.38;;
21899;SDS011;11114;50.658;12.704;2022-11-20T02:50:20;15.52;;;14.32;;
21899;SDS011;11114;50.658;12.704;2022-11-20T02:52:48;15.45;;;14.30;;
21899;SDS011;11114;50.658;12.704;2022-11-20T02:55:16;15.88;;;14.57;;
21899;SDS011;11114;50.658;12.704;2022-11-20T02:57:44;15.70;;;14.50;;
21899;SDS011;11114;50.658;12.704;2022-11-20T03:00:11;14.95;;;13.75;;
21899;SDS011;11114;50.658;12.704;2022-11-20T03:02:39;15.60;;;14.30;;
21899;SDS011;11114;50.658;12.704;2022-11-20T03:05:07;15.10;;;14.00;;
21899;SDS011;11114;50.658;12.704;2022-11-20T03:07:35;15.73;;;14.52;;
21899;SDS011;11114;50.658;12.704;2022-11-20T03:10:03;14.73;;;13.63;;
21899;SDS011;11114;50.658;12.704;2022-11-20T03:12:32;15.20;;;14.02;;
21899;SDS011;11114;50.658;12.704;2022-11-20T03:14:59;14.95;;;13.75;;
21899;SDS011;11114;50.658;12.704;2022-11-20T03:17:27;14.63;;;13.52;;
21899;SDS011;11114;50.658;12.704;2022-11-20T03:19:56;14.73;;;13.52;;
21899;SDS011;11114;50.658;12.704;2022-11-20T03:22:24;14.43;;;13.32;;
21899;SDS011;11114;50.658;12.704;2022-11-20T03:24:51;14.95;;;13.85;;
21899;SDS011;11114;50.658;12.704;2022-11-20T03:27:19;15.07;;;13.77;;
21899;SDS011;11114;50.658;12.704;2022-11-20T03:29:47;15.00;;;13.77;;
21899;SDS011;11114;50.658;12.704;2022-11-20T03:32:14;14.65;;;13.50;;
21899;SDS011;11114;50.658;12.704;2022-11-20T03:34:42;14.85;;;13.50;;
21899;SDS011;11114;50.658;12.704;2022-11-20T03:37:10;14.50;;;13.40;;
21899;SDS011;11114;50.658;12.704;2022-11-20T03:39:38;14.23;;;13.20;;
21899;SDS011;11114;50.658;12.704;2022-11-20T03:42:05;14.02;;;13.02;;
21899;SDS011;11114;50.658;12.704;2022-11-20T03:44:53;13.75;;;12.75;;
21899;SDS011;11114;50.658;12.704;2022-11-20T03:47:20;13.30;;;12.40;;
21899;SDS011;11114;50.658;12.704;2022-11-20T03:49:48;14.40;;;13.30;;
21899;SDS011;11114;50.658;12.704;2022-11-20T03:52:16;13.82;;;12.82;;
21899;SDS011;11114;50.658;12.704;2022-11-20T03:54:44;13.90;;;12.90;;
21899;SDS011;11114;50.658;12.704;2022-11-20T03:57:12;13.73;;;12.77;;
21899;SDS011;11114;50.658;12.704;2022-11-20T03:59:39;13.93;;;12.93;;
21899;SDS011;11114;50.658;12.704;2022-11-20T04:02:07;13.63;;;12.63;;
21899;SDS011;11114;50.658;12.704;2022-11-20T04:04:35;14.07;;;13.07;;
21899;SDS011;11114;50.658;12.704;2022-11-20T04:07:02;14.93;;;13.82;;
21899;SDS011;11114;50.658;12.704;2022-11-20T04:09:30;14.18;;;13.18;;
21899;SDS011;11114;50.658;12.704;2022-11-20T04:11:58;14.82;;;13.63;;
21899;SDS011;11114;50.658;12.704;2022-11-20T04:14:25;14.88;;;13.77;;
21899;SDS011;11114;50.658;12.704;2022-11-20T04:16:53;14.68;;;13.68;;
21899;SDS011;11114;50.658;12.704;2022-11-20T04:19:21;14.90;;;13.80;;
21899;SDS011;11114;50.658;12.704;2022-11-20T04:21:49;14.23;;;13.23;;
21899;SDS011;11114;50.658;12.704;2022-11-20T04:24:17;14.20;;;13.10;;
21899;SDS011;11114;50.658;12.704;2022-11-20T04:26:45;14.80;;;13.70;;
21899;SDS011;11114;50.658;12.704;2022-11-20T04:29:12;14.50;;;13.50;;
21899;SDS011;11114;50.658;12.704;2022-11-20T04:31:40;14.50;;;13.40;;
21899;SDS011;11114;50.658;12.704;2022-11-20T04:34:10;14.73;;;13.57;;
21899;SDS011;11114;50.658;12.704;2022-11-20T04:39:06;14.77;;;13.68;;
21899;SDS011;11114;50.658;12.704;2022-11-20T04:41:35;14.52;;;13.43;;
21899;SDS011;11114;50.658;12.704;2022-11-20T04:44:04;14.02;;;13.02;;
21899;SDS011;11114;50.658;12.704;2022-11-20T04:46:34;14.55;;;13.50;;
21899;SDS011;11114;50.658;12.704;2022-11-20T04:49:05;13.88;;;12.88;;
21899;SDS011;11114;50.658;12.704;2022-11-20T04:51:33;14.15;;;13.15;;
21899;SDS011;11114;50.658;12.704;2022-11-20T04:54:01;14.75;;;13.70;;
21899;SDS011;11114;50.658;12.704;2022-11-20T04:56:29;14.45;;;13.38;;
21899;SDS011;11114;50.658;12.704;2022-11-20T04:58:59;14.20;;;13.20;;
21899;SDS011;11114;50.658;12.704;2022-11-20T05:01:29;14.82;;;13.80;;
21899;SDS011;11114;50.658;12.704;2022-11-20T05:03:56;14.82;;;13.73;;
21899;SDS011;11114;50.658;12.704;2022-11-20T05:06:24;14.95;;;13.85;;
21899;SDS011;11114;50.658;12.704;2022-11-20T05:08:52;14.10;;;13.10;;
21899;SDS011;11114;50.658;12.704;2022-11-20T05:11:20;14.88;;;13.77;;
21899;SDS011;11114;50.658;12.704;2022-11-20T05:13:48;15.23;;;14.02;;
21899;SDS011;11114;50.658;12.704;2022-11-20T05:16:18;15.10;;;14.00;;
21899;SDS011;11114;50.658;12.704;2022-11-20T05:18:48;15.18;;;13.95;;
21899;SDS011;11114;50.658;12.704;2022-11-20T05:21:17;14.52;;;13.52;;
21899;SDS011;11114;50.658;12.704;2022-11-20T05:23:45;14.70;;;13.60;;
21899;SDS011;11114;50.658;12.704;2022-11-20T05:26:15;14.80;;;13.60;;
21899;SDS011;11114;50.658;12.704;2022-11-20T05:28:49;14.88;;;13.77;;
21899;SDS011;11114;50.658;12.704;2022-11-20T05:31:19;14.13;;;13.13;;
21899;SDS011;11114;50.658;12.704;2022-11-20T05:33:54;14.95;;;13.85;;
21899;SDS011;11114;50.658;12.704;2022-11-20T05:36:23;14.05;;;13.05;;
21899;SDS011;11114;50.658;12.704;2022-11-20T05:38:51;14.50;;;13.40;;
21899;SDS011;11114;50.658;12.704;2022-11-20T05:41:26;14.63;;;13.63;;
21899;SDS011;11114;50.658;12.704;2022-11-20T05:43:53;14.60;;;13.60;;
21899;SDS011;11114;50.658;12.704;2022-11-20T05:46:21;14.57;;;13.57;;
21899;SDS011;11114;50.658;12.704;2022-11-20T05:48:55;14.80;;;13.70;;
21899;SDS011;11114;50.658;12.704;2022-11-20T05:51:24;14.70;;;13.60;;
21899;SDS011;11114;50.658;12.704;2022-11-20T05:53:53;14.77;;;13.70;;
21899;SDS011;11114;50.658;12.704;2022-11-20T05:56:23;14.18;;;13.20;;
21899;SDS011;11114;50.658;12.704;2022-11-20T05:58:51;14.80;;;13.70;;
21899;SDS011;11114;50.658;12.704;2022-11-20T06:01:23;14.90;;;13.75;;
21899;SDS011;11114;50.658;12.704;2022-11-20T06:03:52;14.18;;;13.18;;
21899;SDS011;11114;50.658;12.704;2022-11-20T06:06:21;13.88;;;12.88;;
21899;SDS011;11114;50.658;12.704;2022-11-20T06:08:49;14.13;;;13.13;;
21899;SDS011;11114;50.658;12.704;2022-11-20T06:11:17;14.23;;;13.13;;
21899;SDS011;11114;50.658;12.704;2022-11-20T06:13:45;14.60;;;13.50;;
21899;SDS011;11114;50.658;12.704;2022-11-20T06:16:14;14.02;;;13.07;;
21899;SDS011;11114;50.658;12.704;2022-11-20T06:18:44;13.50;;;12.48;;
21899;SDS011;11114;50.658;12.704;2022-11-20T06:21:13;14.10;;;13.10;;
21899;SDS011;11114;50.658;12.704;2022-11-20T06:23:44;14.80;;;13.70;;
21899;SDS011;11114;50.658;12.704;2022-11-20T06:26:22;14.45;;;13.35;;
21899;SDS011;11114;50.658;12.704;2022-11-20T06:28:51;15.18;;;14.07;;
21899;SDS011;11114;50.658;12.704;2022-11-20T06:31:20;15.50;;;14.30;;
21899;SDS011;11114;50.658;12.704;2022-11-20T06:33:51;14.75;;;13.65;;
21899;SDS011;11114;50.658;12.704;2022-11-20T06:36:20;15.07;;;13.98;;
21899;SDS011;11114;50.658;12.704;2022-11-20T06:38:49;15.63;;;14.43;;
21899;SDS011;11114;50.658;12.704;2022-11-20T06:41:19;15.30;;;14.20;;
21899;SDS011;11114;50.658;12.704;2022-11-20T06:43:48;14.80;;;13.70;;
21899;SDS011;11114;50.658;12.704;2022-11-20T06:46:17;15.60;;;14.40;;
21899;SDS011;11114;50.658;12.704;2022-11-20T06:48:46;15.35;;;13.93;;
21899;SDS011;11114;50.658;12.704;2022-11-20T06:51:14;15.00;;;13.90;;
21899;SDS011;11114;50.658;12.704;2022-11-20T06:53:42;15.10;;;14.00;;
21899;SDS011;11114;50.658;12.704;2022-11-20T06:56:11;15.77;;;14.50;;
21899;SDS011;11114;50.658;12.704;2022-11-20T06:58:38;15.48;;;14.27;;
21899;SDS011;11114;50.658;12.704;2022-11-20T07:01:11;16.00;;;14.80;;
21899;SDS011;11114;50.658;12.704;2022-11-20T07:03:41;16.40;;;15.20;;
21899;SDS011;11114;50.658;12.704;2022-11-20T07:06:09;17.52;;;16.30;;
21899;SDS011;11114;50.658;12.704;2022-11-20T07:08:40;18.23;;;16.83;;
21899;SDS011;11114;50.658;12.704;2022-11-20T07:11:10;18.02;;;16.73;;
21899;SDS011;11114;50.658;12.704;2022-11-20T07:16:07;18.40;;;17.00;;
21899;SDS011;11114;50.658;12.704;2022-11-20T07:18:35;17.75;;;16.45;;
21899;SDS011;11114;50.658;12.704;2022-11-20T07:21:05;18.00;;;16.70;;
21899;SDS011;11114;50.658;12.704;2022-11-20T07:23:34;19.02;;;17.60;;
21899;SDS011;11114;50.658;12.704;2022-11-20T07:26:03;19.10;;;17.60;;
21899;SDS011;11114;50.658;12.704;2022-11-20T07:28:36;18.02;;;16.73;;
21899;SDS011;11114;50.658;12.704;2022-11-20T07:31:04;18.35;;;17.02;;
21899;SDS011;11114;50.658;12.704;2022-11-20T07:33:34;17.70;;;16.48;;
21899;SDS011;11114;50.658;12.704;2022-11-20T07:36:02;19.13;;;17.63;;
21899;SDS011;11114;50.658;12.704;2022-11-20T07:38:30;18.35;;;17.02;;
21899;SDS011;11114;50.658;12.704;2022-11-20T07:40:58;18.80;;;17.48;;
21899;SDS011;11114;50.658;12.704;2022-11-20T07:43:28;19.23;;;17.75;;
21899;SDS011;11114;50.658;12.704;2022-11-20T07:45:57;18.33;;;17.02;;
21899;SDS011;11114;50.658;12.704;2022-11-20T07:48:26;18.33;;;16.92;;
21899;SDS011;11114;50.658;12.704;2022-11-20T07:50:54;18.85;;;17.30;;
21899;SDS011;11114;50.658;12.704;2022-11-20T07:53:23;18.63;;;17.23;;
21899;SDS011;11114;50.658;12.704;2022-11-20T07:55:51;19.70;;;18.13;;
21899;SDS011;11114;50.658;12.704;2022-11-20T07:58:20;19.02;;;17.63;;
21899;SDS011;11114;50.658;12.704;2022-11-20T08:00:48;19.30;;;17.70;;
21899;SDS011;11114;50.658;12.704;2022-11-20T08:03:16;19.15;;;17.65;;
21899;SDS011;11114;50.658;12.704;2022-11-20T08:05:50;19.27;;;17.77;;
21899;SDS011;11114;50.658;12.704;2022-11-20T08:08:18;18.85;;;17.35;;
21899;SDS011;11114;50.658;12.704;2022-11-20T08:10:47;19.77;;;18.17;;
21899;SDS011;11114;50.658;12.704;2022-11-20T08:13:14;18.85;;;17.42;;
21899;SDS011;11114;50.658;12.704;2022-11-20T08:16:00;19.00;;;17.50;;
21899;SDS011;11114;50.658;12.704;2022-11-20T08:18:28;17.90;;;16.50;;
21899;SDS011;11114;50.658;12.704;2022-11-20T08:21:02;19.10;;;17.60;;
21899;SDS011;11114;50.658;12.704;2022-11-20T08:23:31;19.13;;;17.52;;
21899;SDS011;11114;50.658;12.704;2022-11-20T08:25:59;19.75;;;18.15;;
21899;SDS011;11114;50.658;12.704;2022-11-20T08:28:27;20.08;;;18.38;;
21899;SDS011;11114;50.658;12.704;2022-11-20T08:30:59;19.55;;;17.95;;
21899;SDS011;11114;50.658;12.704;2022-11-20T08:33:28;20.10;;;18.42;;
21899;SDS011;11114;50.658;12.704;2022-11-20T08:36:00;20.10;;;18.50;;
21899;SDS011;11114;50.658;12.704;2022-11-20T08:38:28;20.33;;;18.63;;
21899;SDS011;11114;50.658;12.704;2022-11-20T08:41:00;20.50;;;18.80;;
21899;SDS011;11114;50.658;12.704;2022-11-20T08:44:10;21.08;;;19.40;;
21899;SDS011;11114;50.658;12.704;2022-11-20T08:46:37;21.20;;;19.50;;
21899;SDS011;11114;50.658;12.704;2022-11-20T08:49:09;21.50;;;19.70;;
21899;SDS011;11114;50.658;12.704;2022-11-20T08:51:38;20.48;;;18.88;;
21899;SDS011;11114;50.658;12.704;2022-11-20T08:54:06;21.52;;;19.70;;
21899;SDS011;11114;50.658;12.704;2022-11-20T08:56:35;20.40;;;18.80;;
21899;SDS011;11114;50.658;12.704;2022-11-20T08:59:03;20.55;;;18.88;;
21899;SDS011;11114;50.658;12.704;2022-11-20T09:01:50;19.80;;;18.20;;
21899;SDS011;11114;50.658;12.704;2022-11-20T09:04:18;19.45;;;17.85;;
21899;SDS011;11114;50.658;12.704;2022-11-20T09:06:46;19.85;;;18.20;;
21899;SDS011;11114;50.658;12.704;2022-11-20T09:09:18;19.40;;;17.90;;
21899;SDS011;11114;50.658;12.704;2022-11-20T09:11:46;18.67;;;17.13;;
21899;SDS011;11114;50.658;12.704;2022-11-20T09:14:14;20.63;;;19.02;;
21899;SDS011;11114;50.658;12.704;2022-11-20T09:16:44;20.70;;;19.10;;
21899;SDS011;11114;50.658;12.704;2022-11-20T09:19:13;20.17;;;18.60;;
21899;SDS011;11114;50.658;12.704;2022-11-20T09:22:00;21.00;;;19.20;;
21899;SDS011;11114;50.658;12.704;2022-11-20T09:24:28;20.90;;;19.00;;
21899;SDS011;11114;50.658;12.704;2022-11-20T09:26:56;21.60;;;19.73;;
21899;SDS011;11114;50.658;12.704;2022-11-20T09:29:23;20.75;;;19.02;;
21899;SDS011;11114;50.658;12.704;2022-11-20T09:31:51;20.08;;;18.38;;
21899;SDS011;11114;50.658;12.704;2022-11-20T09:34:19;20.63;;;18.85;;
21899;SDS011;11114;50.658;12.704;2022-11-20T09:36:46;19.73;;;18.13;;
21899;SDS011;11114;50.658;12.704;2022-11-20T09:39:14;19.17;;;17.50;;
21899;SDS011;11114;50.658;12.704;2022-11-20T09:44:40;21.60;;;19.60;;
21899;SDS011;11114;50.658;12.704;2022-11-20T09:47:34;20.73;;;18.92;;
21899;SDS011;11114;50.658;12.704;2022-11-20T09:50:12;20.35;;;18.55;;
21899;SDS011;11114;50.658;12.704;2022-11-20T09:55:47;22.95;;;20.85;;
21899;SDS011;11114;50.658;12.704;2022-11-20T09:58:21;23.40;;;21.38;;
21899;SDS011;11114;50.658;12.704;2022-11-20T10:01:08;23.33;;;21.23;;
21899;SDS011;11114;50.658;12.704;2022-11-20T10:03:41;23.95;;;21.75;;
21899;SDS011;11114;50.658;12.704;2022-11-20T10:06:28;23.52;;;21.38;;
21899;SDS011;11114;50.658;12.704;2022-11-20T10:09:01;23.88;;;21.58;;
21899;SDS011;11114;50.658;12.704;2022-11-20T10:17:50;25.15;;;22.75;;
21899;SDS011;11114;50.658;12.704;2022-11-20T10:20:55;24.67;;;22.40;;
21899;SDS011;11114;50.658;12.704;2022-11-20T10:29:18;25.05;;;22.65;;
21899;SDS011;11114;50.658;12.704;2022-11-20T10:31:54;25.08;;;22.75;;
21899;SDS011;11114;50.658;12.704;2022-11-20T10:34:42;23.70;;;21.40;;
21899;SDS011;11114;50.658;12.704;2022-11-20T10:37:16;24.27;;;22.02;;
21899;SDS011;11114;50.658;12.704;2022-11-20T10:39:56;24.48;;;22.17;;
21899;SDS011;11114;50.658;12.704;2022-11-20T10:42:42;24.40;;;22.00;;
21899;SDS011;11114;50.658;12.704;2022-11-20T10:48:08;27.75;;;24.95;;
21899;SDS011;11114;50.658;12.704;2022-11-20T10:50:44;27.75;;;24.88;;
21899;SDS011;11114;50.658;12.704;2022-11-20T10:56:31;24.58;;;22.17;;
21899;SDS011;11114;50.658;12.704;2022-11-20T11:02:20;27.17;;;24.25;;
21899;SDS011;11114;50.658;12.704;2022-11-20T11:04:53;26.35;;;23.77;;
21899;SDS011;11114;50.658;12.704;2022-11-20T11:07:30;29.25;;;26.17;;
21899;SDS011;11114;50.658;12.704;2022-11-20T11:10:12;28.13;;;25.23;;
21899;SDS011;11114;50.658;12.704;2022-11-20T11:12:51;28.10;;;25.20;;
21899;SDS011;11114;50.658;12.704;2022-11-20T11:15:27;29.17;;;26.15;;
21899;SDS011;11114;50.658;12.704;2022-11-20T11:18:08;30.25;;;27.08;;
21899;SDS011;11114;50.658;12.704;2022-11-20T11:20:37;28.20;;;25.27;;
21899;SDS011;11114;50.658;12.704;2022-11-20T11:23:10;28.63;;;25.63;;
21899;SDS011;11114;50.658;12.704;2022-11-20T11:25:56;30.45;;;27.15;;
21899;SDS011;11114;50.658;12.704;2022-11-20T11:28:26;25.08;;;22.63;;
21899;SDS011;11114;50.658;12.704;2022-11-20T11:30:55;25.77;;;23.20;;
21899;SDS011;11114;50.658;12.704;2022-11-20T11:33:32;29.85;;;26.13;;
21899;SDS011;11114;50.658;12.704;2022-11-20T11:36:03;27.17;;;24.40;;
21899;SDS011;11114;50.658;12.704;2022-11-20T11:38:43;26.05;;;22.98;;
21899;SDS011;11114;50.658;12.704;2022-11-20T11:41:13;28.40;;;25.30;;
21899;SDS011;11114;50.658;12.704;2022-11-20T11:43:52;28.88;;;25.83;;
21899;SDS011;11114;50.658;12.704;2022-11-20T11:46:44;34.55;;;28.85;;
21899;SDS011;11114;50.658;12.704;2022-11-20T11:49:20;30.67;;;27.33;;
21899;SDS011;11114;50.658;12.704;2022-11-20T11:57:23;27.50;;;24.60;;
21899;SDS011;11114;50.658;12.704;2022-11-20T12:00:09;28.48;;;25.48;;
21899;SDS011;11114;50.658;12.704;2022-11-20T12:05:24;31.48;;;28.05;;
21899;SDS011;11114;50.658;12.704;2022-11-20T12:10:46;31.88;;;27.58;;
21899;SDS011;11114;50.658;12.704;2022-11-20T12:15:54;31.23;;;27.75;;
21899;SDS011;11114;50.658;12.704;2022-11-20T12:18:22;31.10;;;27.55;;
21899;SDS011;11114;50.658;12.704;2022-11-20T12:20:56;29.27;;;26.08;;
21899;SDS011;11114;50.658;12.704;2022-11-20T12:29:29;33.50;;;29.10;;
21899;SDS011;11114;50.658;12.704;2022-11-20T12:43:51;39.80;;;30.15;;
21899;SDS011;11114;50.658;12.704;2022-11-20T12:47:10;33.17;;;28.80;;
21899;SDS011;11114;50.658;12.704;2022-11-20T12:49:52;33.43;;;28.07;;
21899;SDS011;11114;50.658;12.704;2022-11-20T12:52:38;37.22;;;28.63;;
21899;SDS011;11114;50.658;12.704;2022-11-20T12:55:32;32.40;;;27.00;;
21899;SDS011;11114;50.658;12.704;2022-11-20T12:58:27;32.83;;;28.52;;
21899;SDS011;11114;50.658;12.704;2022-11-20T13:06:43;32.65;;;28.35;;
21899;SDS011;11114;50.658;12.704;2022-11-20T13:09:13;35.92;;;30.40;;
21899;SDS011;11114;50.658;12.704;2022-11-20T13:14:44;32.35;;;28.60;;
21899;SDS011;11114;50.658;12.704;2022-11-20T13:17:19;35.03;;;29.88;;
21899;SDS011;11114;50.658;12.704;2022-11-20T13:19:58;31.77;;;27.92;;
21899;SDS011;11114;50.658;12.704;2022-11-20T13:22:27;35.10;;;29.58;;
21899;SDS011;11114;50.658;12.704;2022-11-20T13:24:56;27.92;;;24.80;;
21899;SDS011;11114;50.658;12.704;2022-11-20T13:27:24;33.17;;;28.25;;
21899;SDS011;11114;50.658;12.704;2022-11-20T13:30:12;34.72;;;29.08;;
21899;SDS011;11114;50.658;12.704;2022-11-20T13:35:27;32.17;;;28.02;;
21899;SDS011;11114;50.658;12.704;2022-11-20T13:38:06;34.83;;;29.52;;
21899;SDS011;11114;50.658;12.704;2022-11-20T13:40:49;37.78;;;30.98;;
21899;SDS011;11114;50.658;12.704;2022-11-20T13:43:23;31.65;;;28.13;;
21899;SDS011;11114;50.658;12.704;2022-11-20T13:45:59;34.65;;;29.17;;
21899;SDS011;11114;50.658;12.704;2022-11-20T13:48:32;36.05;;;30.13;;
21899;SDS011;11114;50.658;12.704;2022-11-20T14:02:21;32.15;;;28.63;;
21899;SDS011;11114;50.658;12.704;2022-11-20T14:07:21;32.38;;;28.45;;
21899;SDS011;11114;50.658;12.704;2022-11-20T14:09:55;30.60;;;27.40;;
21899;SDS011;11114;50.658;12.704;2022-11-20T14:12:28;28.58;;;25.73;;
21899;SDS011;11114;50.658;12.704;2022-11-20T14:14:58;33.70;;;28.92;;
21899;SDS011;11114;50.658;12.704;2022-11-20T14:17:31;35.22;;;30.85;;
21899;SDS011;11114;50.658;12.704;2022-11-20T14:20:02;32.22;;;28.77;;
21899;SDS011;11114;50.658;12.704;2022-11-20T14:22:32;34.03;;;29.42;;
21899;SDS011;11114;50.658;12.704;2022-11-20T14:25:18;34.20;;;29.92;;
21899;SDS011;11114;50.658;12.704;2022-11-20T14:27:54;32.75;;;29.30;;
21899;SDS011;11114;50.658;12.704;2022-11-20T14:30:25;38.00;;;31.17;;
21899;SDS011;11114;50.658;12.704;2022-11-20T14:33:06;30.77;;;27.55;;
21899;SDS011;11114;50.658;12.704;2022-11-20T14:35:35;30.65;;;27.55;;
21899;SDS011;11114;50.658;12.704;2022-11-20T14:38:09;30.42;;;27.25;;
21899;SDS011;11114;50.658;12.704;2022-11-20T14:40:40;35.22;;;29.77;;
21899;SDS011;11114;50.658;12.704;2022-11-20T14:43:20;33.17;;;29.02;;
21899;SDS011;11114;50.658;12.704;2022-11-20T14:45:52;30.20;;;26.63;;
21899;SDS011;11114;50.658;12.704;2022-11-20T14:48:35;32.38;;;28.88;;
21899;SDS011;11114;50.658;12.704;2022-11-20T14:51:08;30.77;;;27.48;;
21899;SDS011;11114;50.658;12.704;2022-11-20T14:53:37;33.85;;;30.02;;
21899;SDS011;11114;50.658;12.704;2022-11-20T14:56:05;34.35;;;30.30;;
21899;SDS011;11114;50.658;12.704;2022-11-20T14:58:33;31.27;;;27.95;;
21899;SDS011;11114;50.658;12.704;2022-11-20T15:01:05;32.38;;;28.55;;
21899;SDS011;11114;50.658;12.704;2022-11-20T15:03:38;31.40;;;28.00;;
21899;SDS011;11114;50.658;12.704;2022-11-20T15:06:09;32.83;;;28.58;;
21899;SDS011;11114;50.658;12.704;2022-11-20T15:08:38;37.10;;;31.30;;
21899;SDS011;11114;50.658;12.704;2022-11-20T15:11:27;26.90;;;24.10;;
21899;SDS011;11114;50.658;12.704;2022-11-20T15:13:58;30.48;;;27.17;;
21899;SDS011;11114;50.658;12.704;2022-11-20T15:16:30;33.88;;;30.25;;
21899;SDS011;11114;50.658;12.704;2022-11-20T15:18:58;32.25;;;28.08;;
21899;SDS011;11114;50.658;12.704;2022-11-20T15:21:27;31.63;;;28.23;;
21899;SDS011;11114;50.658;12.704;2022-11-20T15:23:55;30.25;;;27.08;;
21899;SDS011;11114;50.658;12.704;2022-11-20T15:26:24;31.85;;;28.00;;
21899;SDS011;11114;50.658;12.704;2022-11-20T15:28:53;28.80;;;25.80;;
21899;SDS011;11114;50.658;12.704;2022-11-20T15:31:22;29.23;;;26.23;;
21899;SDS011;11114;50.658;12.704;2022-11-20T15:33:50;32.38;;;27.50;;
21899;SDS011;11114;50.658;12.704;2022-11-20T15:36:18;30.20;;;26.95;;
21899;SDS011;11114;50.658;12.704;2022-11-20T15:38:46;29.67;;;26.35;;
21899;SDS011;11114;50.658;12.704;2022-11-20T15:41:13;31.80;;;28.40;;
21899;SDS011;11114;50.658;12.704;2022-11-20T15:43:41;30.88;;;27.50;;
21899;SDS011;11114;50.658;12.704;2022-11-20T15:46:10;29.48;;;26.38;;
21899;SDS011;11114;50.658;12.704;2022-11-20T15:48:42;27.85;;;25.05;;
21899;SDS011;11114;50.658;12.704;2022-11-20T15:54:15;29.58;;;26.60;;
21899;SDS011;11114;50.658;12.704;2022-11-20T15:56:45;29.85;;;26.65;;
21899;SDS011;11114;50.658;12.704;2022-11-20T15:59:19;31.80;;;28.17;;
21899;SDS011;11114;50.658;12.704;2022-11-20T16:01:47;30.30;;;27.00;;
21899;SDS011;11114;50.658;12.704;2022-11-20T16:04:15;30.33;;;27.13;;
21899;SDS011;11114;50.658;12.704;2022-11-20T16:06:43;29.80;;;26.60;;